Mereta, Texas
Current Conditions -  °F | °C
As of 6:51 PM on Sunday 21 Dec 2014 (Local Time) from KSJT Reporting Station
Clear Clear  
Wind Chill: 55°   Ceiling: Unl
Heat Index: 55°   Visibility: 10mi
Dew Point: 44°   Wind: 14mph
Humidity: 67%   Direction: 200°SSW
Pressure: 29.76"   Gusts: NA
Location:  31.46°N, 100.14°W
Report Text: KSJT 220051Z 20012KT 10SM CLR 13/07 A2976 RMK AO2 SLP074 T01280067
Loading
Personal Weather Stations






























Interactive Weather Map New forecast layout! Learn more

10-Day Weather Forecast

Advertisements
Track Severe Weather on mobile